createdAt,value
2022-08-01T00:00:43.977Z,0.00
2022-08-01T00:01:43.950Z,0.00
2022-08-01T00:02:44.022Z,0.00
2022-08-01T00:03:43.953Z,0.00
2022-08-01T00:04:43.957Z,0.00
2022-08-01T00:05:43.927Z,0.00
2022-08-01T00:06:43.919Z,0.00
2022-08-01T00:07:43.906Z,0.00
2022-08-01T00:08:43.910Z,0.00
2022-08-01T00:09:43.921Z,0.00
2022-08-01T00:10:43.891Z,0.00
2022-08-01T00:11:43.876Z,0.00
2022-08-01T00:12:43.862Z,0.00
2022-08-01T00:13:43.862Z,0.00
2022-08-01T00:14:43.881Z,0.00
2022-08-01T00:15:51.787Z,0.00
2022-08-01T00:16:44.842Z,0.00
2022-08-01T00:17:43.832Z,0.00
2022-08-01T00:18:43.823Z,0.00
2022-08-01T00:19:43.849Z,0.00
2022-08-01T00:20:43.804Z,0.00
2022-08-01T00:21:51.989Z,0.00
2022-08-01T00:22:44.787Z,0.00
2022-08-01T00:23:43.780Z,0.00
2022-08-01T00:24:43.807Z,0.00
2022-08-01T00:25:43.768Z,0.00
2022-08-01T00:26:43.776Z,0.00
2022-08-01T00:27:43.752Z,0.00
2022-08-01T00:28:43.738Z,0.00
2022-08-01T00:30:12.645Z,0.00
2022-08-01T00:30:44.726Z,0.00
2022-08-01T00:31:43.717Z,0.00
2022-08-01T00:32:43.715Z,0.00
2022-08-01T00:33:43.704Z,0.00
2022-08-01T00:34:43.721Z,0.00
2022-08-01T00:35:43.687Z,0.00
2022-08-01T00:36:43.676Z,0.00
2022-08-01T00:37:43.662Z,0.00
2022-08-01T00:38:44.660Z,0.00
2022-08-01T00:39:43.680Z,0.00
2022-08-01T00:40:43.636Z,0.00
2022-08-01T00:41:43.644Z,0.00
2022-08-01T00:42:43.947Z,0.00
2022-08-01T00:43:44.625Z,0.00
2022-08-01T00:44:43.636Z,0.00
2022-08-01T00:45:43.605Z,0.00
2022-08-01T00:46:43.596Z,0.00
2022-08-01T00:47:43.592Z,0.00
2022-08-01T00:48:43.585Z,0.00
2022-08-01T00:49:43.602Z,0.00
2022-08-01T00:50:43.571Z,0.00
2022-08-01T00:51:43.557Z,0.00
2022-08-01T00:52:43.556Z,0.00
2022-08-01T00:53:50.969Z,0.00
2022-08-01T00:54:44.567Z,0.00
2022-08-01T00:55:43.526Z,0.00
2022-08-01T00:56:43.524Z,0.00
2022-08-01T00:58:05.471Z,0.00
2022-08-01T00:58:44.501Z,0.00
2022-08-01T00:59:43.650Z,0.00
2022-08-01T01:00:52.743Z,0.00
2022-08-01T01:01:46.895Z,0.00
2022-08-01T01:02:44.473Z,0.00
2022-08-01T01:03:58.603Z,0.00
2022-08-01T01:04:45.484Z,0.00
2022-08-01T01:05:43.448Z,0.00
2022-08-01T01:06:43.471Z,0.00
2022-08-01T01:07:49.503Z,0.00
2022-08-01T01:08:44.425Z,0.00
2022-08-01T01:09:43.441Z,0.00
2022-08-01T01:10:43.413Z,0.00
2022-08-01T01:11:43.400Z,0.00
2022-08-01T01:12:45.890Z,0.00
2022-08-01T01:13:49.640Z,0.00
2022-08-01T01:14:44.407Z,0.00
2022-08-01T01:15:43.380Z,0.00
2022-08-01T01:16:43.365Z,0.00
2022-08-01T01:17:51.130Z,0.00
2022-08-01T01:18:44.349Z,0.00
2022-08-01T01:19:43.368Z,0.00
2022-08-01T01:20:43.334Z,0.00
2022-08-01T01:21:43.329Z,0.00
2022-08-01T01:22:43.330Z,0.00
2022-08-01T01:23:43.312Z,0.00
2022-08-01T01:24:43.303Z,0.00
2022-08-01T01:25:43.313Z,0.00
2022-08-01T01:26:43.285Z,0.00
2022-08-01T01:27:43.282Z,0.00
2022-08-01T01:28:44.030Z,0.00
2022-08-01T01:29:59.840Z,0.00
2022-08-01T01:30:44.277Z,0.00
2022-08-01T01:31:43.251Z,0.00
2022-08-01T01:32:43.247Z,0.00
2022-08-01T01:33:47.255Z,0.00
2022-08-01T01:34:43.228Z,0.00
2022-08-01T01:35:43.244Z,0.00
2022-08-01T01:36:43.227Z,0.00
2022-08-01T01:37:43.223Z,0.00
2022-08-01T01:38:43.218Z,0.00
2022-08-01T01:39:45.335Z,0.00
2022-08-01T01:40:44.929Z,0.00
2022-08-01T01:41:43.171Z,0.00
2022-08-01T01:42:43.178Z,0.00
2022-08-01T01:43:43.170Z,0.00
2022-08-01T01:44:43.152Z,0.00
2022-08-01T01:45:43.169Z,0.00
2022-08-01T01:46:43.134Z,0.00
2022-08-01T01:47:43.127Z,0.00
2022-08-01T01:48:43.116Z,0.00
2022-08-01T01:49:43.113Z,0.00
2022-08-01T01:50:43.126Z,0.00
2022-08-01T01:51:43.098Z,0.00
2022-08-01T01:52:44.090Z,0.00
2022-08-01T01:53:43.092Z,0.00
2022-08-01T01:54:43.074Z,0.00
2022-08-01T01:55:48.976Z,0.00
2022-08-01T01:56:44.069Z,0.00
2022-08-01T01:57:43.058Z,0.00
2022-08-01T01:58:43.037Z,0.00
2022-08-01T01:59:43.028Z,0.00
2022-08-01T02:00:43.064Z,0.00
2022-08-01T02:02:08.637Z,0.00
2022-08-01T02:02:44.055Z,0.00
2022-08-01T02:03:43.007Z,0.00
2022-08-01T02:04:42.996Z,0.00
2022-08-01T02:05:43.016Z,0.00
2022-08-01T02:06:42.986Z,0.00
2022-08-01T02:07:42.973Z,0.00
2022-08-01T02:08:42.966Z,0.00
2022-08-01T02:09:42.955Z,0.00
2022-08-01T02:10:42.975Z,0.00
2022-08-01T02:12:08.255Z,0.00
2022-08-01T02:12:43.940Z,0.00
2022-08-01T02:13:42.931Z,0.00
2022-08-01T02:14:42.917Z,0.00
2022-08-01T02:15:59.304Z,0.00
2022-08-01T02:16:43.901Z,0.00
2022-08-01T02:17:42.899Z,0.00
2022-08-01T02:18:42.888Z,0.00
2022-08-01T02:19:42.922Z,0.00
2022-08-01T02:20:42.909Z,0.00
2022-08-01T02:21:42.866Z,0.00
2022-08-01T02:22:42.857Z,0.00
2022-08-01T02:23:42.851Z,0.00
2022-08-01T02:24:42.841Z,0.00
2022-08-01T02:26:09.274Z,0.00
2022-08-01T02:26:43.822Z,0.00
2022-08-01T02:27:42.824Z,0.00
2022-08-01T02:28:42.810Z,0.00
2022-08-01T02:29:42.805Z,0.00
2022-08-01T02:30:42.830Z,0.00
2022-08-01T02:31:42.787Z,0.00
2022-08-01T02:32:42.787Z,0.00
2022-08-01T02:33:42.776Z,0.00
2022-08-01T02:34:42.766Z,0.00
2022-08-01T02:36:30.782Z,0.00
2022-08-01T02:36:43.751Z,0.00
2022-08-01T02:37:46.931Z,0.00
2022-08-01T02:38:42.735Z,0.00
2022-08-01T02:39:42.722Z,0.00
2022-08-01T02:40:42.749Z,0.00
2022-08-01T02:41:42.709Z,0.00
2022-08-01T02:42:42.710Z,0.00
2022-08-01T02:43:42.695Z,0.00
2022-08-01T02:44:42.699Z,0.00
2022-08-01T02:45:42.715Z,0.00
2022-08-01T02:46:42.685Z,0.00
2022-08-01T02:47:42.665Z,0.00
2022-08-01T02:48:42.678Z,0.00
2022-08-01T02:49:42.659Z,0.00
2022-08-01T02:50:43.106Z,0.00
2022-08-01T02:51:42.630Z,0.00
2022-08-01T02:52:42.645Z,0.00
2022-08-01T02:53:44.705Z,0.00
2022-08-01T02:54:42.616Z,0.00
2022-08-01T02:55:42.650Z,0.00
2022-08-01T02:56:42.605Z,0.00
2022-08-01T02:57:52.042Z,0.00
2022-08-01T02:58:43.580Z,0.00
2022-08-01T02:59:42.599Z,0.00
2022-08-01T03:00:42.563Z,0.00
2022-08-01T03:01:42.666Z,0.00
2022-08-01T03:02:42.542Z,0.00
2022-08-01T03:03:42.537Z,0.00
2022-08-01T03:04:42.536Z,0.00
2022-08-01T03:05:42.525Z,0.00
2022-08-01T03:06:44.384Z,0.00
2022-08-01T03:07:42.509Z,0.00
2022-08-01T03:08:42.495Z,0.00
2022-08-01T03:09:42.495Z,0.00
2022-08-01T03:10:42.479Z,0.00
2022-08-01T03:11:42.501Z,0.00
2022-08-01T03:12:42.468Z,0.00
2022-08-01T03:13:42.458Z,0.00
2022-08-01T03:14:42.451Z,0.00
2022-08-01T03:15:42.441Z,0.00
2022-08-01T03:16:42.461Z,0.00
2022-08-01T03:17:42.422Z,4.00
2022-08-01T03:18:42.413Z,4.00
2022-08-01T03:19:43.416Z,4.00
2022-08-01T03:20:42.407Z,0.00
2022-08-01T03:21:42.447Z,4.00
2022-08-01T03:22:42.388Z,4.00
2022-08-01T03:23:42.381Z,4.00
2022-08-01T03:24:42.370Z,4.00
2022-08-01T03:25:42.370Z,4.00
2022-08-01T03:26:42.382Z,8.00
2022-08-01T03:27:42.345Z,8.00
2022-08-01T03:28:42.341Z,8.00
2022-08-01T03:29:42.331Z,8.00
2022-08-01T03:30:42.325Z,8.00
2022-08-01T03:31:42.379Z,12.00
2022-08-01T03:32:42.310Z,16.00
2022-08-01T03:33:42.309Z,16.00
2022-08-01T03:34:42.298Z,24.00
2022-08-01T03:35:42.284Z,24.00
2022-08-01T03:36:42.335Z,28.00
2022-08-01T03:37:59.998Z,28.00
2022-08-01T03:38:44.264Z,32.00
2022-08-01T03:39:42.251Z,40.00
2022-08-01T03:40:42.244Z,44.00
2022-08-01T03:41:42.259Z,44.00
2022-08-01T03:42:42.229Z,40.00
2022-08-01T03:43:42.227Z,40.00
2022-08-01T03:44:42.209Z,44.00
2022-08-01T03:45:42.211Z,44.00
2022-08-01T03:46:42.219Z,44.00
2022-08-01T03:47:44.677Z,44.00
2022-08-01T03:48:42.179Z,40.00
2022-08-01T03:49:42.174Z,44.00
2022-08-01T03:50:42.163Z,48.00
2022-08-01T03:51:42.182Z,56.00
2022-08-01T03:52:42.154Z,76.00
2022-08-01T03:53:42.626Z,88.00
2022-08-01T03:54:42.128Z,104.00
2022-08-01T03:55:42.121Z,108.00
2022-08-01T03:56:42.143Z,132.00
2022-08-01T03:57:42.107Z,152.00
2022-08-01T03:58:42.096Z,164.00
2022-08-01T03:59:42.090Z,176.00
2022-08-01T04:00:42.083Z,184.00
2022-08-01T04:01:42.162Z,192.00
2022-08-01T04:02:42.068Z,208.00
2022-08-01T04:03:43.109Z,224.00
2022-08-01T04:04:42.055Z,284.00
2022-08-01T04:05:42.051Z,348.00
2022-08-01T04:06:42.042Z,376.00
2022-08-01T04:07:42.052Z,396.00
2022-08-01T04:08:42.023Z,404.00
2022-08-01T04:09:42.011Z,400.00
2022-08-01T04:10:42.005Z,408.00
2022-08-01T04:11:42.020Z,484.00
2022-08-01T04:12:42.013Z,528.00
2022-08-01T04:13:44.497Z,488.00
2022-08-01T04:14:41.972Z,380.00
2022-08-01T04:15:41.962Z,304.00
2022-08-01T04:16:41.956Z,256.00
2022-08-01T04:17:41.973Z,236.00
2022-08-01T04:18:41.944Z,232.00
2022-08-01T04:19:41.931Z,224.00
2022-08-01T04:20:41.922Z,220.00
2022-08-01T04:21:41.913Z,216.00
2022-08-01T04:22:41.933Z,232.00
2022-08-01T04:23:41.901Z,244.00
2022-08-01T04:24:41.890Z,268.00
2022-08-01T04:25:41.885Z,288.00
2022-08-01T04:26:41.882Z,308.00
2022-08-01T04:27:51.192Z,320.00
2022-08-01T04:28:42.875Z,336.00
2022-08-01T04:29:41.873Z,324.00
2022-08-01T04:30:41.853Z,328.00
2022-08-01T04:31:41.839Z,360.00
2022-08-01T04:32:41.861Z,376.00
2022-08-01T04:33:41.826Z,368.00
2022-08-01T04:34:41.814Z,372.00
2022-08-01T04:36:03.653Z,368.00
2022-08-01T04:36:42.807Z,388.00
2022-08-01T04:37:41.816Z,436.00
2022-08-01T04:38:41.786Z,452.00
2022-08-01T04:39:50.385Z,436.00
2022-08-01T04:40:42.772Z,416.00
2022-08-01T04:41:41.761Z,396.00
2022-08-01T04:42:41.776Z,412.00
2022-08-01T04:43:44.195Z,412.00
2022-08-01T04:44:41.735Z,436.00
2022-08-01T04:45:41.731Z,532.00
2022-08-01T04:46:41.727Z,620.00
2022-08-01T04:47:41.736Z,656.00
2022-08-01T04:48:41.706Z,788.00
2022-08-01T04:49:49.110Z,952.00
2022-08-01T04:50:42.690Z,1112.00
2022-08-01T04:51:41.685Z,1272.00
2022-08-01T04:52:41.703Z,1372.00
2022-08-01T04:53:41.661Z,1412.00
2022-08-01T04:54:41.660Z,1440.00
2022-08-01T04:55:41.646Z,1488.00
2022-08-01T04:56:41.638Z,1604.00
2022-08-01T04:57:41.655Z,1652.00
2022-08-01T04:58:41.627Z,1604.00
2022-08-01T04:59:41.616Z,1464.00
2022-08-01T05:00:41.618Z,1376.00
2022-08-01T05:01:41.688Z,1468.00
2022-08-01T05:02:41.618Z,1576.00
2022-08-01T05:03:42.626Z,1648.00
2022-08-01T05:04:41.588Z,1692.00
2022-08-01T05:05:41.570Z,1708.00
2022-08-01T05:06:41.564Z,1708.00
2022-08-01T05:07:44.352Z,1704.00
2022-08-01T05:08:41.609Z,1676.00
2022-08-01T05:09:41.537Z,1644.00
2022-08-01T05:10:41.535Z,1640.00
2022-08-01T05:11:41.527Z,1532.00
2022-08-01T05:12:41.515Z,1432.00
2022-08-01T05:13:41.535Z,1460.00
2022-08-01T05:14:41.497Z,1608.00
2022-08-01T05:15:41.491Z,1808.00
2022-08-01T05:16:41.484Z,2084.00
2022-08-01T05:17:41.473Z,2284.00
2022-08-01T05:18:41.491Z,2428.00
2022-08-01T05:19:41.456Z,2760.00
2022-08-01T05:20:41.452Z,2876.00
2022-08-01T05:21:41.444Z,2988.00
2022-08-01T05:22:41.439Z,3120.00
2022-08-01T05:23:42.989Z,3296.00
2022-08-01T05:24:41.424Z,3552.00
2022-08-01T05:25:57.880Z,3544.00
2022-08-01T05:26:42.409Z,3404.00
2022-08-01T05:27:41.404Z,3268.00
2022-08-01T05:28:41.419Z,3120.00
2022-08-01T05:29:44.620Z,3076.00
2022-08-01T05:30:42.375Z,2932.00
2022-08-01T05:31:41.371Z,2816.00
2022-08-01T05:32:41.359Z,2560.00
2022-08-01T05:33:41.379Z,2344.00
2022-08-01T05:34:41.344Z,2176.00
2022-08-01T05:35:47.875Z,2028.00
2022-08-01T05:36:42.330Z,1908.00
2022-08-01T05:37:41.325Z,1932.00
2022-08-01T05:38:41.336Z,2036.00
2022-08-01T05:39:41.303Z,2172.00
2022-08-01T05:40:41.298Z,2280.00
2022-08-01T05:41:41.291Z,2360.00
2022-08-01T05:42:41.289Z,2436.00
2022-08-01T05:43:41.296Z,2496.00
2022-08-01T05:44:41.269Z,2540.00
2022-08-01T05:45:41.266Z,2416.00
2022-08-01T05:46:41.247Z,2096.00
2022-08-01T05:47:43.150Z,1908.00
2022-08-01T05:48:41.259Z,1788.00
2022-08-01T05:49:41.235Z,1712.00
2022-08-01T05:50:41.231Z,1660.00
2022-08-01T05:51:41.213Z,1676.00
2022-08-01T05:52:41.205Z,1804.00
2022-08-01T05:53:41.219Z,1996.00
2022-08-01T05:54:41.185Z,2220.00
2022-08-01T05:55:41.185Z,2508.00
2022-08-01T05:56:41.181Z,2796.00
2022-08-01T05:57:41.177Z,2912.00
2022-08-01T05:58:41.182Z,3168.00
2022-08-01T05:59:41.150Z,3512.00
2022-08-01T06:00:41.146Z,3804.00
2022-08-01T06:01:41.181Z,3932.00
2022-08-01T06:02:41.192Z,3936.00
2022-08-01T06:03:41.140Z,4180.00
2022-08-01T06:04:41.111Z,4820.00
2022-08-01T06:05:41.113Z,5348.00
2022-08-01T06:06:41.100Z,5540.00
2022-08-01T06:07:41.100Z,5180.00
2022-08-01T06:08:41.106Z,4808.00
2022-08-01T06:09:41.076Z,5036.00
2022-08-01T06:10:41.056Z,5912.00
2022-08-01T06:11:42.063Z,6592.00
2022-08-01T06:12:41.052Z,6856.00
2022-08-01T06:13:48.533Z,7112.00
2022-08-01T06:14:42.032Z,7692.00
2022-08-01T06:15:41.029Z,7996.00
2022-08-01T06:16:41.018Z,8332.00
2022-08-01T06:17:41.011Z,8396.00
2022-08-01T06:18:41.027Z,8688.00
2022-08-01T06:19:40.994Z,8616.00
2022-08-01T06:20:41.017Z,8288.00
2022-08-01T06:21:40.984Z,8308.00
2022-08-01T06:22:40.971Z,8296.00
2022-08-01T06:23:40.966Z,8068.00
2022-08-01T06:24:40.984Z,8188.00
2022-08-01T06:25:40.950Z,8548.00
2022-08-01T06:26:40.946Z,9480.00
2022-08-01T06:27:40.929Z,10720.00
2022-08-01T06:28:40.926Z,12512.00
2022-08-01T06:29:40.940Z,14240.00
2022-08-01T06:30:41.911Z,15012.00
2022-08-01T06:31:40.902Z,15296.00
2022-08-01T06:32:40.890Z,16124.00
2022-08-01T06:33:40.883Z,17664.00
2022-08-01T06:34:40.921Z,16832.00
2022-08-01T06:35:40.871Z,11180.00
2022-08-01T06:36:40.861Z,8032.00
2022-08-01T06:37:40.844Z,6668.00
2022-08-01T06:38:41.846Z,6304.00
2022-08-01T06:39:40.861Z,6588.00
2022-08-01T06:40:40.827Z,6852.00
2022-08-01T06:41:40.822Z,7312.00
2022-08-01T06:42:40.813Z,8404.00
2022-08-01T06:43:40.803Z,9888.00
2022-08-01T06:44:40.826Z,11952.00
2022-08-01T06:45:40.788Z,12556.00
2022-08-01T06:46:40.778Z,12336.00
2022-08-01T06:47:40.774Z,12736.00
2022-08-01T06:48:40.773Z,11328.00
2022-08-01T06:49:40.801Z,7916.00
2022-08-01T06:50:40.750Z,6056.00
2022-08-01T06:51:40.747Z,5132.00
2022-08-01T06:52:40.738Z,4524.00
2022-08-01T06:53:40.721Z,4292.00
2022-08-01T06:54:40.742Z,4176.00
2022-08-01T06:55:40.712Z,4292.00
2022-08-01T06:56:40.701Z,4212.00
2022-08-01T06:57:40.685Z,3952.00
2022-08-01T06:58:41.689Z,4236.00
2022-08-01T06:59:40.799Z,4424.00
2022-08-01T07:00:41.690Z,4456.00
2022-08-01T07:01:40.775Z,4824.00
2022-08-01T07:02:40.657Z,6016.00
2022-08-01T07:03:53.903Z,7072.00
2022-08-01T07:04:41.669Z,7424.00
2022-08-01T07:05:40.636Z,7156.00
2022-08-01T07:06:40.624Z,6152.00
2022-08-01T07:07:40.617Z,5472.00
2022-08-01T07:08:40.615Z,5108.00
2022-08-01T07:09:40.633Z,4836.00
2022-08-01T07:10:40.593Z,4568.00
2022-08-01T07:11:40.586Z,4344.00
2022-08-01T07:12:40.572Z,4152.00
2022-08-01T07:13:45.495Z,4096.00
2022-08-01T07:14:40.586Z,4172.00
2022-08-01T07:15:40.559Z,4312.00
2022-08-01T07:16:40.562Z,4548.00
2022-08-01T07:17:40.542Z,4760.00
2022-08-01T07:18:40.538Z,4788.00
2022-08-01T07:19:40.550Z,4800.00
2022-08-01T07:20:51.825Z,4820.00
2022-08-01T07:21:41.888Z,4768.00
2022-08-01T07:22:41.501Z,4796.00
2022-08-01T07:23:45.843Z,4980.00
2022-08-01T07:24:41.543Z,5416.00
2022-08-01T07:25:40.504Z,5712.00
2022-08-01T07:26:52.986Z,5664.00
2022-08-01T07:27:41.468Z,5536.00
2022-08-01T07:28:43.948Z,5648.00
2022-08-01T07:29:40.474Z,5864.00
2022-08-01T07:30:40.445Z,6128.00
2022-08-01T07:31:40.455Z,6348.00
2022-08-01T07:32:40.425Z,6812.00
2022-08-01T07:33:48.099Z,7252.00
2022-08-01T07:34:41.438Z,7568.00
2022-08-01T07:35:40.414Z,7764.00
2022-08-01T07:36:40.417Z,8032.00
2022-08-01T07:37:45.268Z,8520.00
2022-08-01T07:38:41.381Z,9108.00
2022-08-01T07:39:40.406Z,9748.00
2022-08-01T07:40:40.368Z,10996.00
2022-08-01T07:42:05.808Z,11932.00
2022-08-01T07:42:41.349Z,12088.00
2022-08-01T07:43:40.352Z,12008.00
2022-08-01T07:44:40.359Z,12068.00
2022-08-01T07:45:43.846Z,13188.00
2022-08-01T07:46:41.321Z,16212.00
2022-08-01T07:47:40.312Z,44192.00
2022-08-01T07:48:40.320Z,34624.00
2022-08-01T07:49:41.112Z,22496.00
2022-08-01T07:50:41.293Z,20992.00
2022-08-01T07:51:40.282Z,23488.00
2022-08-01T07:52:40.274Z,24736.00
2022-08-01T07:53:40.265Z,29568.00
2022-08-01T07:54:40.292Z,37120.00
2022-08-01T07:55:40.258Z,102080.00
2022-08-01T07:56:40.250Z,75584.00
2022-08-01T07:57:40.233Z,75360.00
2022-08-01T07:58:40.223Z,35104.00
2022-08-01T07:59:40.255Z,33760.00
2022-08-01T08:00:40.211Z,97472.00
2022-08-01T08:01:40.230Z,30688.00
2022-08-01T08:02:40.192Z,22976.00
2022-08-01T08:03:40.197Z,59296.00
2022-08-01T08:04:40.202Z,112960.00
2022-08-01T08:05:58.816Z,109024.00
2022-08-01T08:06:41.163Z,26432.00
2022-08-01T08:07:40.164Z,21952.00
2022-08-01T08:08:40.178Z,20224.00
2022-08-01T08:09:40.174Z,30112.00
2022-08-01T08:10:40.140Z,27584.00
2022-08-01T08:11:43.448Z,14944.00
2022-08-01T08:12:41.145Z,14988.00
2022-08-01T08:13:40.117Z,14816.00
2022-08-01T08:14:40.134Z,13252.00
2022-08-01T08:15:40.111Z,11736.00
2022-08-01T08:16:40.089Z,11044.00
2022-08-01T08:17:40.084Z,11048.00
2022-08-01T08:18:40.076Z,16404.00
2022-08-01T08:19:40.105Z,18112.00
2022-08-01T08:20:40.065Z,32640.00
2022-08-01T08:21:40.081Z,43936.00
2022-08-01T08:22:40.050Z,42560.00
2022-08-01T08:23:41.966Z,41024.00
2022-08-01T08:24:45.607Z,39616.00
2022-08-01T08:25:41.022Z,44064.00
2022-08-01T08:26:40.017Z,44000.00
2022-08-01T08:27:40.004Z,22912.00
2022-08-01T08:28:40.252Z,20416.00
2022-08-01T08:29:40.020Z,18848.00
2022-08-01T08:30:39.986Z,18368.00
2022-08-01T08:31:52.369Z,17632.00
2022-08-01T08:32:40.982Z,19040.00
2022-08-01T08:33:39.965Z,40032.00
2022-08-01T08:34:39.986Z,17792.00
2022-08-01T08:35:40.487Z,25760.00
2022-08-01T08:36:40.965Z,16608.00
2022-08-01T08:37:47.595Z,15164.00
2022-08-01T08:38:40.933Z,14984.00
2022-08-01T08:39:41.794Z,15272.00
2022-08-01T08:40:40.008Z,15608.00
2022-08-01T08:41:40.912Z,12808.00
2022-08-01T08:42:39.901Z,11636.00
2022-08-01T08:43:39.891Z,11128.00
2022-08-01T08:44:39.911Z,11160.00
2022-08-01T08:45:58.826Z,12704.00
2022-08-01T08:46:40.889Z,15176.00
2022-08-01T08:47:39.863Z,15700.00
2022-08-01T08:48:39.859Z,15472.00
2022-08-01T08:49:39.918Z,27136.00
2022-08-01T08:50:39.844Z,20032.00
2022-08-01T08:51:39.833Z,20192.00
2022-08-01T08:52:39.829Z,32224.00
2022-08-01T08:53:39.823Z,31296.00
2022-08-01T08:54:39.837Z,31584.00
2022-08-01T08:55:56.253Z,31168.00
2022-08-01T08:56:40.791Z,34464.00
2022-08-01T08:57:39.792Z,36000.00
2022-08-01T08:58:39.781Z,36416.00
2022-08-01T08:59:39.805Z,37984.00
2022-08-01T09:00:39.772Z,36032.00
2022-08-01T09:01:39.760Z,22080.00
2022-08-01T09:02:39.752Z,22176.00
2022-08-01T09:03:39.792Z,20960.00
2022-08-01T09:04:39.770Z,18176.00
2022-08-01T09:05:39.738Z,16212.00
2022-08-01T09:06:39.722Z,16512.00
2022-08-01T09:07:39.726Z,21664.00
2022-08-01T09:08:39.750Z,22400.00
2022-08-01T09:09:41.931Z,21024.00
2022-08-01T09:10:39.692Z,20736.00
2022-08-01T09:11:39.691Z,22496.00
2022-08-01T09:12:39.730Z,32288.00
2022-08-01T09:13:45.297Z,34976.00
2022-08-01T09:14:40.674Z,30272.00
2022-08-01T09:15:39.685Z,32864.00
2022-08-01T09:16:39.647Z,22176.00
2022-08-01T09:17:39.639Z,20320.00
2022-08-01T09:18:39.630Z,18976.00
2022-08-01T09:19:41.590Z,18432.00
2022-08-01T09:20:39.665Z,18048.00
2022-08-01T09:21:39.614Z,17824.00
2022-08-01T09:22:39.614Z,17504.00
2022-08-01T09:23:40.595Z,17472.00
2022-08-01T09:24:40.595Z,17504.00
2022-08-01T09:25:46.121Z,17504.00
2022-08-01T09:26:40.572Z,17248.00
2022-08-01T09:27:44.291Z,14948.00
2022-08-01T09:28:42.975Z,13460.00
2022-08-01T09:29:41.559Z,13536.00
2022-08-01T09:30:39.619Z,14636.00
2022-08-01T09:31:39.544Z,14780.00
2022-08-01T09:32:39.534Z,15072.00
2022-08-01T09:33:39.539Z,15676.00
2022-08-01T09:34:39.519Z,15708.00
2022-08-01T09:35:43.889Z,18688.00
2022-08-01T09:36:39.504Z,17760.00
2022-08-01T09:37:39.556Z,17792.00
2022-08-01T09:38:42.252Z,18400.00
2022-08-01T09:39:40.504Z,17728.00
2022-08-01T09:40:39.498Z,16480.00
2022-08-01T09:41:40.307Z,16512.00
2022-08-01T09:42:39.466Z,16192.00
2022-08-01T09:43:39.460Z,15436.00
2022-08-01T09:44:40.019Z,16096.00
2022-08-01T09:45:41.263Z,15840.00
2022-08-01T09:46:40.434Z,14760.00
2022-08-01T09:47:39.484Z,15392.00
2022-08-01T09:48:39.437Z,15212.00
2022-08-01T09:49:51.098Z,14456.00
2022-08-01T09:50:40.432Z,13840.00
2022-08-01T09:51:58.780Z,13304.00
2022-08-01T09:52:41.127Z,13000.00
2022-08-01T09:53:39.382Z,13004.00
2022-08-01T09:54:40.375Z,13176.00
2022-08-01T09:55:39.395Z,13488.00
2022-08-01T09:56:39.360Z,13368.00
2022-08-01T09:57:39.377Z,13152.00
2022-08-01T09:58:39.350Z,13024.00
2022-08-01T09:59:57.193Z,12692.00
2022-08-01T10:00:45.766Z,12632.00
2022-08-01T10:01:40.548Z,12544.00
2022-08-01T10:02:39.317Z,12288.00
2022-08-01T10:03:39.409Z,13416.00
2022-08-01T10:04:39.299Z,16128.00
2022-08-01T10:05:39.288Z,16384.00
2022-08-01T10:06:39.313Z,15432.00
2022-08-01T10:07:43.694Z,14504.00
2022-08-01T10:08:40.266Z,13900.00
2022-08-01T10:09:40.790Z,13392.00
2022-08-01T10:10:39.260Z,13084.00
2022-08-01T10:11:39.276Z,12756.00
2022-08-01T10:12:39.236Z,12544.00
2022-08-01T10:13:40.225Z,10280.00
2022-08-01T10:14:39.218Z,11296.00
2022-08-01T10:15:39.211Z,11092.00
2022-08-01T10:16:39.321Z,11372.00
2022-08-01T10:17:50.424Z,11684.00
2022-08-01T10:18:40.190Z,11636.00
2022-08-01T10:19:39.192Z,12876.00
2022-08-01T10:20:39.173Z,13304.00
2022-08-01T10:21:47.687Z,12876.00
2022-08-01T10:22:40.151Z,12560.00
2022-08-01T10:23:39.983Z,14040.00
2022-08-01T10:24:39.145Z,13956.00
2022-08-01T10:25:42.851Z,12436.00
2022-08-01T10:26:39.157Z,10976.00
2022-08-01T10:27:39.699Z,10996.00
2022-08-01T10:28:39.463Z,13364.00
2022-08-01T10:29:45.678Z,12080.00
2022-08-01T10:30:40.091Z,11196.00
2022-08-01T10:31:39.117Z,10636.00
2022-08-01T10:32:39.664Z,12372.00
2022-08-01T10:33:51.114Z,10208.00
2022-08-01T10:34:40.565Z,10436.00
2022-08-01T10:35:47.187Z,12488.00
2022-08-01T10:36:41.014Z,12184.00
2022-08-01T10:37:52.514Z,9944.00
2022-08-01T10:38:40.031Z,9252.00
2022-08-01T10:39:39.026Z,11080.00
2022-08-01T10:40:39.016Z,11344.00
2022-08-01T10:41:41.540Z,10980.00
2022-08-01T10:42:39.006Z,11244.00
2022-08-01T10:43:39.007Z,11364.00
2022-08-01T10:44:38.987Z,11540.00
2022-08-01T10:45:38.988Z,9164.00
2022-08-01T10:46:38.997Z,11856.00
2022-08-01T10:47:52.144Z,9848.00
2022-08-01T10:48:39.956Z,9668.00
2022-08-01T10:49:39.011Z,9260.00
2022-08-01T10:50:38.946Z,8772.00
2022-08-01T10:51:51.981Z,11056.00
2022-08-01T10:52:39.917Z,11304.00
2022-08-01T10:53:42.636Z,11524.00
2022-08-01T10:54:38.917Z,11368.00
2022-08-01T10:55:39.905Z,11524.00
2022-08-01T10:56:38.932Z,11536.00
2022-08-01T10:57:38.897Z,11428.00
2022-08-01T10:58:42.697Z,11492.00
2022-08-01T10:59:50.312Z,11772.00
2022-08-01T11:00:39.878Z,11960.00
2022-08-01T11:01:39.001Z,12012.00
2022-08-01T11:02:39.872Z,12172.00
2022-08-01T11:03:56.765Z,11864.00
2022-08-01T11:04:40.851Z,10464.00
2022-08-01T11:05:38.840Z,10656.00
2022-08-01T11:06:38.850Z,12368.00
2022-08-01T11:07:38.821Z,12228.00
2022-08-01T11:08:38.812Z,11332.00
2022-08-01T11:09:38.833Z,11336.00
2022-08-01T11:10:39.030Z,12732.00
2022-08-01T11:11:38.819Z,12752.00
2022-08-01T11:12:38.780Z,11024.00
2022-08-01T11:13:38.774Z,12628.00
2022-08-01T11:14:55.138Z,14056.00
2022-08-01T11:15:50.094Z,13996.00
2022-08-01T11:16:39.779Z,13136.00
2022-08-01T11:17:42.116Z,13472.00
2022-08-01T11:18:38.735Z,13412.00
2022-08-01T11:19:38.742Z,13700.00
2022-08-01T11:20:41.968Z,11736.00
2022-08-01T11:21:59.092Z,12424.00
2022-08-01T11:22:39.699Z,13924.00
2022-08-01T11:23:38.697Z,11964.00
2022-08-01T11:24:38.691Z,11580.00
2022-08-01T11:26:05.146Z,13712.00
2022-08-01T11:26:39.701Z,13760.00
2022-08-01T11:27:38.677Z,13820.00
2022-08-01T11:28:40.624Z,13480.00
2022-08-01T11:29:39.652Z,12396.00
2022-08-01T11:30:38.654Z,12060.00
2022-08-01T11:31:38.634Z,13908.00
2022-08-01T11:32:58.651Z,13716.00
2022-08-01T11:33:40.617Z,11464.00
2022-08-01T11:34:38.610Z,13228.00
2022-08-01T11:35:38.605Z,13120.00
2022-08-01T11:37:03.404Z,10784.00
2022-08-01T11:37:40.615Z,10536.00
2022-08-01T11:38:38.578Z,10592.00
2022-08-01T11:39:39.043Z,10624.00
2022-08-01T11:40:39.565Z,10704.00
2022-08-01T11:41:39.507Z,10528.00
2022-08-01T11:42:39.588Z,9932.00
2022-08-01T11:43:38.562Z,10228.00
2022-08-01T11:44:38.547Z,11152.00
2022-08-01T11:45:38.527Z,10132.00
2022-08-01T11:46:38.529Z,9880.00
2022-08-01T11:47:38.538Z,9676.00
2022-08-01T11:48:38.506Z,11544.00
2022-08-01T11:49:39.231Z,11024.00
2022-08-01T11:50:38.992Z,11064.00
2022-08-01T11:51:38.485Z,11008.00
2022-08-01T11:52:38.497Z,10936.00
2022-08-01T11:53:38.468Z,11004.00
2022-08-01T11:54:38.465Z,10856.00
2022-08-01T11:55:38.469Z,10684.00
2022-08-01T11:56:42.888Z,10608.00
2022-08-01T11:57:40.468Z,10500.00
2022-08-01T11:58:38.433Z,10312.00
2022-08-01T11:59:41.137Z,10412.00
2022-08-01T12:00:38.416Z,10404.00
2022-08-01T12:01:39.406Z,9920.00
2022-08-01T12:02:38.458Z,9148.00
2022-08-01T12:03:38.396Z,7844.00
2022-08-01T12:04:38.388Z,7788.00
2022-08-01T12:05:43.236Z,7856.00
2022-08-01T12:06:39.373Z,8092.00
2022-08-01T12:07:38.397Z,8400.00
2022-08-01T12:08:38.356Z,8892.00
2022-08-01T12:09:38.348Z,9412.00
2022-08-01T12:10:49.526Z,9596.00
2022-08-01T12:11:39.333Z,10372.00
2022-08-01T12:12:38.362Z,9752.00
2022-08-01T12:13:38.319Z,11068.00
2022-08-01T12:14:38.316Z,11688.00
2022-08-01T12:15:38.309Z,11528.00
2022-08-01T12:16:38.299Z,11320.00
2022-08-01T12:17:38.313Z,11184.00
2022-08-01T12:18:38.309Z,10860.00
2022-08-01T12:19:38.281Z,10868.00